Main page
METAR-TAF:

METAR-TAF

Airports :

Gage Airport

Gage, Oklahoma, United States

latitude: 36-17-48N, longitude: 099-46-08W, elevation: 2221 ft

Current weather observation

The report was made 1 hour and 16 minutes ago, at 03:53 UTC
Wind 26 mph from the South/Southeast with gusts up to 37 mph
Temperature 81°F
Humidity 62%
Pressure 29.85 in. Hg
Visibility: 10 miles
Clear sky

METAR: KGAG 190353Z AUTO 15023G32KT 10SM CLR 27/19 A2985 RMK AO2 PK WND 16037/0331 SLP078 T02720189 $

Time: 00:09 (05:09 UTC)


TAF: missing

Weather observations and forecasts of more than 4000 airports (METAR and TAF reports).

The available stations are represented by yellow and red dots on the map.

Hover mouse over dot to see the name of the station.

Then click to see weather observations and forecasts.

To change the map : click on the green buttons with a black cross to zoom in, on the green button with a dash to zoom out, or on the green arrows for adjacent maps.


METAR-TAF: